createdAt,value
2017-06-26T00:00:58.123Z,0
2017-06-26T00:02:08.613Z,0
2017-06-26T00:03:18.843Z,0
2017-06-26T00:04:29.076Z,0
2017-06-26T00:05:39.312Z,0
2017-06-26T00:06:49.255Z,0
2017-06-26T00:07:59.750Z,0
2017-06-26T00:09:09.994Z,0
2017-06-26T00:10:20.224Z,0
2017-06-26T00:11:30.461Z,0
2017-06-26T00:12:40.697Z,0
2017-06-26T00:13:51.193Z,0
2017-06-26T00:15:01.444Z,0
2017-06-26T00:16:11.376Z,0
2017-06-26T00:17:20.691Z,0
2017-06-26T00:18:30.958Z,0
2017-06-26T00:19:41.144Z,0
2017-06-26T00:20:51.079Z,0
2017-06-26T00:22:01.318Z,0
2017-06-26T00:23:11.561Z,0
2017-06-26T00:24:21.796Z,0
2017-06-26T00:25:32.277Z,0
2017-06-26T00:26:42.516Z,0
2017-06-26T00:27:52.756Z,0
2017-06-26T00:29:03.002Z,0
2017-06-26T00:30:12.933Z,0
2017-06-26T00:31:23.420Z,0
2017-06-26T00:32:33.344Z,0
2017-06-26T00:33:43.594Z,0
2017-06-26T00:34:53.544Z,0
2017-06-26T00:36:03.777Z,0
2017-06-26T00:37:14.273Z,0
2017-06-26T00:38:24.208Z,0
2017-06-26T00:39:34.439Z,0
2017-06-26T00:40:44.384Z,0
2017-06-26T00:41:54.316Z,0
2017-06-26T00:43:04.498Z,0
2017-06-26T00:44:14.111Z,0
2017-06-26T00:45:24.346Z,0
2017-06-26T00:46:34.274Z,0
2017-06-26T00:47:44.191Z,0
2017-06-26T00:48:54.073Z,0
2017-06-26T00:50:04.348Z,0
2017-06-26T00:51:14.586Z,0
2017-06-26T00:52:24.816Z,0
2017-06-26T00:53:35.058Z,0
2017-06-26T00:54:45.236Z,0
2017-06-26T00:55:55.163Z,0
2017-06-26T00:57:04.474Z,0
2017-06-26T00:58:14.705Z,0
2017-06-26T00:59:24.939Z,0
2017-06-26T01:00:35.420Z,0
2017-06-26T01:01:45.655Z,0
2017-06-26T01:02:55.894Z,0
2017-06-26T01:04:05.820Z,0
2017-06-26T01:05:15.757Z,0
2017-06-26T01:06:25.926Z,0
2017-06-26T01:07:35.844Z,0
2017-06-26T01:08:45.770Z,0
2017-06-26T01:09:56.008Z,0
2017-06-26T01:11:06.239Z,0
2017-06-26T01:12:16.415Z,0
2017-06-26T01:13:26.652Z,0
2017-06-26T01:14:36.586Z,0
2017-06-26T01:15:46.829Z,0
2017-06-26T01:16:57.071Z,0
2017-06-26T01:18:07.554Z,0
2017-06-26T01:19:17.796Z,0
2017-06-26T01:20:28.033Z,0
2017-06-26T01:21:38.269Z,0
2017-06-26T01:22:48.207Z,0
2017-06-26T01:23:58.691Z,0
2017-06-26T01:25:08.937Z,0
2017-06-26T01:26:19.165Z,0
2017-06-26T01:27:29.426Z,0
2017-06-26T01:28:39.655Z,0
2017-06-26T01:29:50.148Z,0
2017-06-26T01:31:00.391Z,0
2017-06-26T01:32:10.312Z,0
2017-06-26T01:33:20.555Z,0
2017-06-26T01:34:30.799Z,0
2017-06-26T01:35:40.981Z,0
2017-06-26T01:36:51.227Z,0
2017-06-26T01:38:01.156Z,0
2017-06-26T01:39:11.388Z,0
2017-06-26T01:40:21.630Z,0
2017-06-26T01:41:32.115Z,0
2017-06-26T01:42:42.049Z,0
2017-06-26T01:43:51.980Z,0
2017-06-26T01:45:01.899Z,0
2017-06-26T01:46:12.148Z,0
2017-06-26T01:47:22.631Z,0
2017-06-26T01:48:32.554Z,0
2017-06-26T01:49:42.793Z,0
2017-06-26T01:50:53.029Z,0
2017-06-26T01:52:03.260Z,0
2017-06-26T01:53:13.739Z,0
2017-06-26T01:54:23.667Z,0
2017-06-26T01:55:33.904Z,0
2017-06-26T01:56:44.133Z,0
2017-06-26T01:57:54.371Z,0
2017-06-26T01:59:04.855Z,0
2017-06-26T02:00:14.784Z,0
2017-06-26T02:01:25.018Z,0
2017-06-26T02:02:34.947Z,0
2017-06-26T02:03:45.178Z,0
2017-06-26T02:04:55.659Z,0
2017-06-26T02:06:05.588Z,0
2017-06-26T02:07:15.831Z,0
2017-06-26T02:08:26.058Z,4
2017-06-26T02:09:36.294Z,4
2017-06-26T02:10:46.164Z,4
2017-06-26T02:11:56.393Z,4
2017-06-26T02:13:06.649Z,0
2017-06-26T02:14:16.584Z,4
2017-06-26T02:15:26.506Z,4
2017-06-26T02:16:36.988Z,8
2017-06-26T02:17:47.231Z,8
2017-06-26T02:18:57.461Z,8
2017-06-26T02:20:07.690Z,8
2017-06-26T02:21:17.932Z,4
2017-06-26T02:22:28.423Z,4
2017-06-26T02:23:38.348Z,8
2017-06-26T02:24:48.274Z,8
2017-06-26T02:25:58.508Z,8
2017-06-26T02:27:08.434Z,12
2017-06-26T02:28:18.921Z,12
2017-06-26T02:29:29.171Z,20
2017-06-26T02:30:39.416Z,24
2017-06-26T02:31:49.661Z,28
2017-06-26T02:32:59.903Z,32
2017-06-26T02:34:10.102Z,36
2017-06-26T02:35:20.329Z,44
2017-06-26T02:36:30.600Z,52
2017-06-26T02:37:40.831Z,64
2017-06-26T02:38:51.064Z,80
2017-06-26T02:40:01.240Z,96
2017-06-26T02:41:11.481Z,112
2017-06-26T02:42:21.735Z,140
2017-06-26T02:43:31.976Z,168
2017-06-26T02:44:41.904Z,200
2017-06-26T02:45:52.385Z,232
2017-06-26T02:47:02.620Z,272
2017-06-26T02:48:12.884Z,308
2017-06-26T02:49:23.120Z,348
2017-06-26T02:50:33.052Z,384
2017-06-26T02:51:43.548Z,420
2017-06-26T02:52:53.777Z,472
2017-06-26T02:54:04.019Z,520
2017-06-26T02:55:14.258Z,560
2017-06-26T02:56:24.496Z,580
2017-06-26T02:57:34.980Z,592
2017-06-26T02:58:45.215Z,592
2017-06-26T02:59:55.451Z,616
2017-06-26T03:01:05.390Z,624
2017-06-26T03:02:15.622Z,644
2017-06-26T03:03:25.798Z,672
2017-06-26T03:04:36.038Z,704
2017-06-26T03:05:45.958Z,732
2017-06-26T03:06:56.190Z,752
2017-06-26T03:08:05.806Z,784
2017-06-26T03:09:16.296Z,784
2017-06-26T03:10:26.534Z,784
2017-06-26T03:11:36.161Z,764
2017-06-26T03:12:46.078Z,736
2017-06-26T03:13:56.325Z,720
2017-06-26T03:15:06.814Z,692
2017-06-26T03:16:17.049Z,680
2017-06-26T03:17:26.980Z,700
2017-06-26T03:18:37.214Z,628
2017-06-26T03:19:47.457Z,624
2017-06-26T03:20:57.634Z,552
2017-06-26T03:22:07.865Z,448
2017-06-26T03:23:17.814Z,456
2017-06-26T03:24:27.745Z,492
2017-06-26T03:25:37.698Z,432
2017-06-26T03:26:48.193Z,412
2017-06-26T03:27:58.115Z,352
2017-06-26T03:29:08.047Z,432
2017-06-26T03:30:17.983Z,392
2017-06-26T03:31:28.219Z,488
2017-06-26T03:32:38.721Z,688
2017-06-26T03:33:48.966Z,892
2017-06-26T03:34:59.213Z,1168
2017-06-26T03:36:08.839Z,1312
2017-06-26T03:37:19.078Z,1316
2017-06-26T03:38:29.555Z,1604
2017-06-26T03:39:39.483Z,1512
2017-06-26T03:40:49.098Z,1684
2017-06-26T03:41:59.334Z,1464
2017-06-26T03:43:09.255Z,1296
2017-06-26T03:44:19.798Z,1124
2017-06-26T03:45:29.740Z,1124
2017-06-26T03:46:39.979Z,1200
2017-06-26T03:47:49.914Z,1232
2017-06-26T03:49:00.144Z,1340
2017-06-26T03:50:10.627Z,1516
2017-06-26T03:51:20.874Z,1524
2017-06-26T03:52:31.112Z,1624
2017-06-26T03:53:41.048Z,1548
2017-06-26T03:54:51.314Z,1400
2017-06-26T03:56:01.497Z,1544
2017-06-26T03:57:11.431Z,1680
2017-06-26T03:58:21.359Z,1528
2017-06-26T03:59:31.288Z,1500
2017-06-26T04:00:41.216Z,1436
2017-06-26T04:01:51.701Z,1416
2017-06-26T04:03:01.936Z,1612
2017-06-26T04:04:12.171Z,1524
2017-06-26T04:05:22.400Z,1476
2017-06-26T04:06:32.644Z,1680
2017-06-26T04:07:42.817Z,2148
2017-06-26T04:08:53.049Z,2488
2017-06-26T04:10:03.280Z,2816
2017-06-26T04:11:13.210Z,3320
2017-06-26T04:12:22.842Z,3580
2017-06-26T04:13:33.019Z,3700
2017-06-26T04:14:43.260Z,3716
2017-06-26T04:15:53.182Z,3812
2017-06-26T04:17:03.421Z,4252
2017-06-26T04:18:13.662Z,4372
2017-06-26T04:19:24.152Z,4516
2017-06-26T04:20:34.383Z,4780
2017-06-26T04:21:44.621Z,4976
2017-06-26T04:22:54.855Z,6276
2017-06-26T04:24:05.098Z,6476
2017-06-26T04:25:15.587Z,6300
2017-06-26T04:26:25.822Z,5816
2017-06-26T04:27:35.439Z,5216
2017-06-26T04:28:45.364Z,5372
2017-06-26T04:29:55.604Z,4904
2017-06-26T04:31:06.091Z,4596
2017-06-26T04:32:16.358Z,4428
2017-06-26T04:33:26.601Z,5120
2017-06-26T04:34:36.525Z,5132
2017-06-26T04:35:46.456Z,5396
2017-06-26T04:36:56.945Z,6104
2017-06-26T04:38:07.184Z,7040
2017-06-26T04:39:17.432Z,7524
2017-06-26T04:40:27.664Z,7844
2017-06-26T04:41:37.601Z,7180
2017-06-26T04:42:47.791Z,5728
2017-06-26T04:43:57.728Z,6640
2017-06-26T04:45:07.669Z,7644
2017-06-26T04:46:17.604Z,7920
2017-06-26T04:47:27.224Z,7472
2017-06-26T04:48:37.722Z,7324
2017-06-26T04:49:47.649Z,6192
2017-06-26T04:50:57.888Z,4704
2017-06-26T04:52:08.134Z,3992
2017-06-26T04:53:18.377Z,4728
2017-06-26T04:54:28.866Z,4968
2017-06-26T04:55:39.110Z,4876
2017-06-26T04:56:49.344Z,4496
2017-06-26T04:57:59.578Z,3504
2017-06-26T04:59:09.815Z,3180
2017-06-26T05:00:19.996Z,2820
2017-06-26T05:01:30.235Z,2604
2017-06-26T05:02:40.465Z,2592
2017-06-26T05:03:50.701Z,2620
2017-06-26T05:05:00.631Z,2472
2017-06-26T05:06:10.819Z,2124
2017-06-26T05:07:20.753Z,2496
2017-06-26T05:08:30.991Z,3092
2017-06-26T05:09:41.237Z,3928
2017-06-26T05:10:51.487Z,4308
2017-06-26T05:12:01.702Z,4948
2017-06-26T05:13:11.940Z,5712
2017-06-26T05:14:21.869Z,6572
2017-06-26T05:15:32.118Z,7076
2017-06-26T05:16:42.369Z,7236
2017-06-26T05:17:52.285Z,7276
2017-06-26T05:19:02.230Z,5824
2017-06-26T05:20:12.175Z,5240
2017-06-26T05:21:22.418Z,5644
2017-06-26T05:22:32.772Z,6012
2017-06-26T05:23:43.310Z,6292
2017-06-26T05:24:53.235Z,6676
2017-06-26T05:26:03.162Z,4952
2017-06-26T05:27:13.424Z,3488
2017-06-26T05:28:23.663Z,2680
2017-06-26T05:29:34.150Z,2704
2017-06-26T05:30:44.394Z,3716
2017-06-26T05:31:54.336Z,3568
2017-06-26T05:33:04.579Z,4104
2017-06-26T05:34:14.196Z,4768
2017-06-26T05:35:24.707Z,5976
2017-06-26T05:36:34.994Z,6760
2017-06-26T05:37:44.944Z,6152
2017-06-26T05:38:55.190Z,6304
2017-06-26T05:40:05.426Z,5708
2017-06-26T05:41:15.918Z,4932
2017-06-26T05:42:26.167Z,4040
2017-06-26T05:43:36.407Z,3800
2017-06-26T05:44:46.642Z,3364
2017-06-26T05:45:56.284Z,2800
2017-06-26T05:47:06.781Z,3784
2017-06-26T05:48:17.028Z,6048
2017-06-26T05:49:27.267Z,7576
2017-06-26T05:50:36.893Z,7948
2017-06-26T05:51:47.150Z,7708
2017-06-26T05:52:57.668Z,6980
2017-06-26T05:54:07.617Z,5352
2017-06-26T05:55:17.885Z,5024
2017-06-26T05:56:28.133Z,6724
2017-06-26T05:57:38.377Z,8692
2017-06-26T05:58:48.868Z,8004
2017-06-26T05:59:59.145Z,7336
2017-06-26T06:01:09.379Z,5996
2017-06-26T06:02:19.322Z,4628
2017-06-26T06:03:28.950Z,4256
2017-06-26T06:04:39.431Z,3756
2017-06-26T06:05:49.675Z,4692
2017-06-26T06:06:59.928Z,5792
2017-06-26T06:08:10.180Z,6036
2017-06-26T06:09:20.440Z,4684
2017-06-26T06:10:30.309Z,5132
2017-06-26T06:11:40.268Z,5192
2017-06-26T06:12:50.522Z,4232
2017-06-26T06:14:00.759Z,6100
2017-06-26T06:15:11.005Z,7576
2017-06-26T06:16:21.573Z,8832
2017-06-26T06:17:31.809Z,10004
2017-06-26T06:18:41.786Z,6960
2017-06-26T06:19:51.721Z,6164
2017-06-26T06:21:01.963Z,8292
2017-06-26T06:22:12.510Z,10024
2017-06-26T06:23:22.503Z,9704
2017-06-26T06:24:32.126Z,8672
2017-06-26T06:25:42.396Z,6836
2017-06-26T06:26:52.633Z,4580
2017-06-26T06:28:02.827Z,4120
2017-06-26T06:29:13.076Z,4300
2017-06-26T06:30:23.318Z,4280
2017-06-26T06:31:33.562Z,3848
2017-06-26T06:32:43.831Z,5048
2017-06-26T06:33:54.331Z,6124
2017-06-26T06:35:04.604Z,5576
2017-06-26T06:36:14.874Z,5292
2017-06-26T06:37:25.171Z,6756
2017-06-26T06:38:35.422Z,6200
2017-06-26T06:39:45.620Z,2868
2017-06-26T06:40:55.876Z,1152
2017-06-26T06:42:06.110Z,1312
2017-06-26T06:43:16.057Z,2724
2017-06-26T06:44:26.347Z,4460
2017-06-26T06:45:36.880Z,5800
2017-06-26T06:46:47.407Z,5360
2017-06-26T06:47:57.673Z,4684
2017-06-26T06:49:07.968Z,3836
2017-06-26T06:50:18.224Z,3920
2017-06-26T06:51:28.744Z,3812
2017-06-26T06:52:38.713Z,5352
2017-06-26T06:53:49.005Z,7620
2017-06-26T06:54:58.674Z,9152
2017-06-26T06:56:08.643Z,8620
2017-06-26T06:57:19.149Z,7624
2017-06-26T06:58:29.461Z,7912
2017-06-26T06:59:39.747Z,7836
2017-06-26T07:00:50.087Z,9040
2017-06-26T07:02:00.089Z,8604
2017-06-26T07:03:10.644Z,7824
2017-06-26T07:04:20.928Z,8496
2017-06-26T07:05:31.227Z,8300
2017-06-26T07:06:41.557Z,7516
2017-06-26T07:07:51.525Z,7780
2017-06-26T07:09:02.029Z,8600
2017-06-26T07:10:12.039Z,8112
2017-06-26T07:11:22.334Z,8220
2017-06-26T07:12:32.643Z,8200
2017-06-26T07:13:42.836Z,7896
2017-06-26T07:14:53.397Z,7660
2017-06-26T07:16:03.665Z,6780
2017-06-26T07:17:13.936Z,7792
2017-06-26T07:18:23.897Z,7808
2017-06-26T07:19:34.183Z,7324
2017-06-26T07:20:44.799Z,6956
2017-06-26T07:21:55.103Z,6868
2017-06-26T07:23:05.365Z,7520
2017-06-26T07:24:15.636Z,7596
2017-06-26T07:25:25.913Z,7568
2017-06-26T07:26:36.440Z,8776
2017-06-26T07:27:46.734Z,9112
2017-06-26T07:28:57.016Z,10292
2017-06-26T07:30:07.292Z,10748
2017-06-26T07:31:17.570Z,10976
2017-06-26T07:32:28.110Z,12556
2017-06-26T07:33:38.104Z,14384
2017-06-26T07:34:48.091Z,15100
2017-06-26T07:35:58.349Z,15672
2017-06-26T07:37:08.297Z,18080
2017-06-26T07:38:19.065Z,19968
2017-06-26T07:39:29.447Z,20256
2017-06-26T07:40:39.719Z,22368
2017-06-26T07:41:49.886Z,24480
2017-06-26T07:43:00.139Z,25280
2017-06-26T07:44:10.689Z,24800
2017-06-26T07:45:20.959Z,25056
2017-06-26T07:46:31.293Z,25024
2017-06-26T07:47:41.561Z,24032
2017-06-26T07:48:51.868Z,25888
2017-06-26T07:50:02.389Z,23168
2017-06-26T07:51:12.681Z,30016
2017-06-26T07:52:22.624Z,29696
2017-06-26T07:53:32.894Z,29280
2017-06-26T07:54:43.172Z,22816
2017-06-26T07:55:53.075Z,24928
2017-06-26T07:57:03.384Z,23104
2017-06-26T07:58:13.663Z,24480
2017-06-26T07:59:23.921Z,26976
2017-06-26T08:00:33.875Z,34240
2017-06-26T08:01:43.446Z,37152
2017-06-26T08:02:53.703Z,38784
2017-06-26T08:04:03.640Z,37184
2017-06-26T08:05:13.885Z,35104
2017-06-26T08:06:24.157Z,34752
2017-06-26T08:07:34.673Z,36992
2017-06-26T08:08:44.970Z,36992
2017-06-26T08:09:55.258Z,35264
2017-06-26T08:11:05.542Z,35456
2017-06-26T08:12:15.499Z,32224
2017-06-26T08:13:25.724Z,26944
2017-06-26T08:14:36.010Z,28192
2017-06-26T08:15:46.278Z,30688
2017-06-26T08:16:56.583Z,31104
2017-06-26T08:18:06.858Z,37952
2017-06-26T08:19:17.049Z,37664
2017-06-26T08:20:26.707Z,30464
2017-06-26T08:21:36.043Z,31232
2017-06-26T08:22:46.303Z,30560
2017-06-26T08:23:56.260Z,29920
2017-06-26T08:25:06.164Z,29472
2017-06-26T08:26:16.456Z,30208
2017-06-26T08:27:26.714Z,31424
2017-06-26T08:28:36.992Z,30528
2017-06-26T08:29:47.486Z,27392
2017-06-26T08:30:58.029Z,32640
2017-06-26T08:32:08.012Z,39232
2017-06-26T08:33:17.980Z,38784
2017-06-26T08:34:28.242Z,38208
2017-06-26T08:35:38.508Z,39264
2017-06-26T08:36:49.044Z,39232
2017-06-26T08:37:58.998Z,36768
2017-06-26T08:39:09.310Z,33344
2017-06-26T08:40:19.600Z,31584
2017-06-26T08:41:29.558Z,34816
2017-06-26T08:42:40.100Z,44800
2017-06-26T08:43:50.364Z,44576
2017-06-26T08:45:00.335Z,45824
2017-06-26T08:46:10.302Z,40704
2017-06-26T08:47:20.579Z,37760
2017-06-26T08:48:31.122Z,35936
2017-06-26T08:49:41.107Z,40576
2017-06-26T08:50:51.376Z,39008
2017-06-26T08:52:01.339Z,45664
2017-06-26T08:53:11.609Z,39936
2017-06-26T08:54:22.155Z,40576
2017-06-26T08:55:32.114Z,43104
2017-06-26T08:56:41.416Z,44224
2017-06-26T08:57:51.690Z,45472
2017-06-26T08:59:01.982Z,43072
2017-06-26T09:00:12.198Z,40352
2017-06-26T09:01:22.474Z,39968
2017-06-26T09:02:32.788Z,38752
2017-06-26T09:03:43.058Z,38432
2017-06-26T09:04:53.335Z,41952
2017-06-26T09:06:03.247Z,42272
2017-06-26T09:07:13.535Z,38560
2017-06-26T09:08:23.804Z,36768
2017-06-26T09:09:33.770Z,40608
2017-06-26T09:10:44.034Z,56832
2017-06-26T09:11:54.295Z,41088
2017-06-26T09:13:04.581Z,47584
2017-06-26T09:14:14.609Z,56352
2017-06-26T09:15:24.875Z,68416
2017-06-26T09:16:35.149Z,38880
2017-06-26T09:17:45.684Z,43104
2017-06-26T09:18:55.954Z,42336
2017-06-26T09:20:05.910Z,41376
2017-06-26T09:21:16.220Z,36288
2017-06-26T09:22:26.502Z,54368
2017-06-26T09:23:37.087Z,58272
2017-06-26T09:24:47.359Z,43168
2017-06-26T09:25:57.631Z,79392
2017-06-26T09:27:07.595Z,91072
2017-06-26T09:28:17.549Z,88672
2017-06-26T09:29:28.072Z,87104
2017-06-26T09:30:38.342Z,62144
2017-06-26T09:31:48.319Z,47296
2017-06-26T09:32:58.586Z,45440
2017-06-26T09:34:08.864Z,44704
2017-06-26T09:35:19.384Z,44704
2017-06-26T09:36:29.657Z,73248
2017-06-26T09:37:39.930Z,119968
2017-06-26T09:38:50.200Z,50080
2017-06-26T09:40:00.485Z,120096
2017-06-26T09:41:11.014Z,52032
2017-06-26T09:42:21.272Z,58368
2017-06-26T09:43:31.554Z,53184
2017-06-26T09:44:41.882Z,43712
2017-06-26T09:45:51.858Z,52320
2017-06-26T09:47:02.092Z,68480
2017-06-26T09:48:12.356Z,80448
2017-06-26T09:49:22.635Z,102208
2017-06-26T09:50:33.126Z,122144
2017-06-26T09:51:43.400Z,92896
2017-06-26T09:52:53.608Z,61408
2017-06-26T09:54:03.576Z,76160
2017-06-26T09:55:13.874Z,66112
2017-06-26T09:56:24.149Z,46624
2017-06-26T09:57:34.424Z,43680
2017-06-26T09:58:44.959Z,41760
2017-06-26T09:59:54.638Z,39488
2017-06-26T10:01:04.322Z,39744
2017-06-26T10:02:13.971Z,41568
2017-06-26T10:03:24.233Z,65120
2017-06-26T10:04:34.747Z,55168
2017-06-26T10:05:44.703Z,52704
2017-06-26T10:06:54.343Z,61888
2017-06-26T10:08:04.315Z,42784
2017-06-26T10:09:14.601Z,102880
2017-06-26T10:10:25.133Z,61312
2017-06-26T10:11:34.796Z,73280
2017-06-26T10:12:44.765Z,61824
2017-06-26T10:13:55.038Z,56896
2017-06-26T10:15:05.326Z,53920
2017-06-26T10:16:15.833Z,60416
2017-06-26T10:17:26.103Z,54176
2017-06-26T10:18:36.056Z,54048
2017-06-26T10:19:46.334Z,115616
2017-06-26T10:20:56.609Z,129824
2017-06-26T10:22:06.829Z,123040
2017-06-26T10:23:16.786Z,113920
2017-06-26T10:24:26.136Z,126112
2017-06-26T10:25:36.392Z,62880
2017-06-26T10:26:46.670Z,117376
2017-06-26T10:27:56.897Z,95648
2017-06-26T10:29:07.175Z,116160
2017-06-26T10:30:17.143Z,121408
2017-06-26T10:31:27.105Z,137632
2017-06-26T10:32:37.386Z,129920
2017-06-26T10:33:47.932Z,103168
2017-06-26T10:34:58.233Z,112128
2017-06-26T10:36:08.513Z,44768
2017-06-26T10:37:18.489Z,40768
2017-06-26T10:38:28.743Z,39328
2017-06-26T10:39:38.966Z,30336
2017-06-26T10:40:49.251Z,138272
2017-06-26T10:41:59.557Z,69248
2017-06-26T10:43:09.836Z,52096
2017-06-26T10:44:20.156Z,103040
2017-06-26T10:45:30.060Z,141152
2017-06-26T10:46:40.038Z,68128
2017-06-26T10:47:50.309Z,78240
2017-06-26T10:49:00.587Z,147968
2017-06-26T10:50:10.268Z,38272
2017-06-26T10:51:20.803Z,30944
2017-06-26T10:52:31.087Z,36288
2017-06-26T10:53:41.048Z,38464
2017-06-26T10:54:51.339Z,69408
2017-06-26T10:56:01.304Z,40224
2017-06-26T10:57:11.208Z,37408
2017-06-26T10:58:20.577Z,41728
2017-06-26T10:59:30.884Z,34848
2017-06-26T11:00:41.143Z,35232
2017-06-26T11:01:51.451Z,47872
2017-06-26T11:03:01.660Z,100608
2017-06-26T11:04:11.940Z,37440
2017-06-26T11:05:22.211Z,36960
2017-06-26T11:06:32.482Z,30240
2017-06-26T11:07:42.761Z,23904
2017-06-26T11:08:52.959Z,23840
2017-06-26T11:10:03.238Z,26400
2017-06-26T11:11:13.518Z,36896
2017-06-26T11:12:23.809Z,145632
2017-06-26T11:13:33.773Z,48800
2017-06-26T11:14:44.284Z,151616
2017-06-26T11:15:54.255Z,58240
2017-06-26T11:17:04.528Z,50656
2017-06-26T11:18:14.811Z,57856
2017-06-26T11:19:24.769Z,149280
2017-06-26T11:20:34.997Z,46368
2017-06-26T11:21:45.296Z,29056
2017-06-26T11:22:54.974Z,25600
2017-06-26T11:24:05.240Z,27744
2017-06-26T11:25:14.919Z,29024
2017-06-26T11:26:25.133Z,30624
2017-06-26T11:27:35.417Z,36384
2017-06-26T11:28:45.689Z,155200
2017-06-26T11:29:55.956Z,48480
2017-06-26T11:31:06.232Z,53088
2017-06-26T11:32:16.459Z,149632
2017-06-26T11:33:26.773Z,55296
2017-06-26T11:34:37.061Z,36768
2017-06-26T11:35:47.376Z,35136
2017-06-26T11:36:57.448Z,33696
2017-06-26T11:38:07.968Z,33248
2017-06-26T11:39:18.252Z,27904
2017-06-26T11:40:28.266Z,31136
2017-06-26T11:41:37.928Z,47424
2017-06-26T11:42:48.215Z,41792
2017-06-26T11:43:58.484Z,63904
2017-06-26T11:45:08.165Z,51488
2017-06-26T11:46:18.120Z,84032
2017-06-26T11:47:28.405Z,38080
2017-06-26T11:48:38.075Z,49632
2017-06-26T11:49:47.995Z,44736
2017-06-26T11:50:57.959Z,167488
2017-06-26T11:52:08.230Z,127936
2017-06-26T11:53:18.497Z,44576
2017-06-26T11:54:28.772Z,107136
2017-06-26T11:55:39.022Z,146784
2017-06-26T11:56:49.294Z,106880
2017-06-26T11:57:59.596Z,125952
2017-06-26T11:59:09.871Z,146144
2017-06-26T12:00:19.900Z,42400
2017-06-26T12:01:30.102Z,33696
2017-06-26T12:02:39.771Z,31264
2017-06-26T12:03:50.076Z,32160
2017-06-26T12:05:00.331Z,36256
2017-06-26T12:06:10.616Z,50656
2017-06-26T12:07:21.147Z,52448
2017-06-26T12:08:31.413Z,135392
2017-06-26T12:09:41.388Z,128800
2017-06-26T12:10:51.052Z,131744
2017-06-26T12:12:01.010Z,135584
2017-06-26T12:13:12.878Z,137280
2017-06-26T12:14:23.146Z,141984
2017-06-26T12:15:32.807Z,74272
2017-06-26T12:16:43.075Z,166208
2017-06-26T12:17:53.088Z,75648
2017-06-26T12:19:03.324Z,67104
2017-06-26T12:20:13.628Z,74720
2017-06-26T12:21:23.576Z,63552
2017-06-26T12:22:33.847Z,94656
2017-06-26T12:23:43.822Z,111136
2017-06-26T12:24:54.034Z,149632
2017-06-26T12:26:04.308Z,41664
2017-06-26T12:27:14.290Z,37408
2017-06-26T12:28:24.251Z,159136
2017-06-26T12:29:34.544Z,130336
2017-06-26T12:30:45.090Z,158528
2017-06-26T12:31:55.069Z,158848
2017-06-26T12:33:05.348Z,56608
2017-06-26T12:34:15.624Z,72928
2017-06-26T12:35:25.587Z,50656
2017-06-26T12:36:36.136Z,44416
2017-06-26T12:37:46.110Z,56128
2017-06-26T12:38:55.765Z,147744
2017-06-26T12:40:06.035Z,37952
2017-06-26T12:41:15.999Z,147040
2017-06-26T12:42:26.532Z,141408
2017-06-26T12:43:36.497Z,131648
2017-06-26T12:44:46.770Z,134496
2017-06-26T12:45:57.053Z,138432
2017-06-26T12:47:07.367Z,134016
2017-06-26T12:48:17.946Z,135776
2017-06-26T12:49:27.891Z,143968
2017-06-26T12:50:37.862Z,141472
2017-06-26T12:51:48.127Z,131968
2017-06-26T12:52:57.779Z,127808
2017-06-26T12:54:08.326Z,132640
2017-06-26T12:55:18.641Z,137120
2017-06-26T12:56:28.294Z,134016
2017-06-26T12:57:38.565Z,125504
2017-06-26T12:58:48.527Z,125376
2017-06-26T12:59:59.044Z,130368
2017-06-26T13:01:08.715Z,131360
2017-06-26T13:02:19.004Z,131040
2017-06-26T13:03:29.282Z,139680
2017-06-26T13:04:39.554Z,135392
2017-06-26T13:05:50.074Z,112576
2017-06-26T13:07:00.043Z,114400
2017-06-26T13:08:10.022Z,136096
2017-06-26T13:09:19.986Z,126400
2017-06-26T13:10:29.970Z,136768
2017-06-26T13:11:40.199Z,138688
2017-06-26T13:12:50.480Z,133280
2017-06-26T13:14:00.767Z,136928
2017-06-26T13:15:10.736Z,132608
2017-06-26T13:16:20.700Z,127232
2017-06-26T13:17:31.241Z,94880
2017-06-26T13:18:41.554Z,37984
2017-06-26T13:19:51.538Z,144544
2017-06-26T13:21:01.501Z,32416
2017-06-26T13:22:11.765Z,32032
2017-06-26T13:23:22.310Z,32160
2017-06-26T13:24:32.282Z,33632
2017-06-26T13:25:42.272Z,36288
2017-06-26T13:26:52.264Z,39104
2017-06-26T13:28:02.245Z,41408
2017-06-26T13:29:12.767Z,79168
2017-06-26T13:30:23.072Z,52736
2017-06-26T13:31:33.039Z,40096
2017-06-26T13:32:42.692Z,38560
2017-06-26T13:33:52.658Z,33376
2017-06-26T13:35:03.161Z,31744
2017-06-26T13:36:13.433Z,30880
2017-06-26T13:37:23.394Z,31968
2017-06-26T13:38:33.674Z,32512
2017-06-26T13:39:43.630Z,33568
2017-06-26T13:40:54.060Z,33376
2017-06-26T13:42:04.037Z,31360
2017-06-26T13:43:14.301Z,28928
2017-06-26T13:44:24.252Z,26624
2017-06-26T13:45:34.540Z,24128
2017-06-26T13:46:45.079Z,21696
2017-06-26T13:47:55.360Z,21440
2017-06-26T13:49:05.638Z,22560
2017-06-26T13:50:15.599Z,23200
2017-06-26T13:51:25.877Z,25056
2017-06-26T13:52:36.401Z,27264
2017-06-26T13:53:46.663Z,27232
2017-06-26T13:54:56.620Z,24768
2017-06-26T13:56:06.878Z,22848
2017-06-26T13:57:17.155Z,21088
2017-06-26T13:58:27.402Z,21760
2017-06-26T13:59:37.355Z,23936
2017-06-26T14:00:47.632Z,26880
2017-06-26T14:01:57.607Z,29152
2017-06-26T14:03:07.878Z,35520
2017-06-26T14:04:17.781Z,43680
2017-06-26T14:05:28.073Z,37600
2017-06-26T14:06:37.730Z,38944
2017-06-26T14:07:48.001Z,38784
2017-06-26T14:08:57.949Z,39232
2017-06-26T14:10:07.887Z,41056
2017-06-26T14:11:18.161Z,44832
2017-06-26T14:12:28.138Z,50688
2017-06-26T14:13:38.086Z,51232
2017-06-26T14:14:48.359Z,61504
2017-06-26T14:15:58.900Z,145088
2017-06-26T14:17:09.188Z,60352
2017-06-26T14:18:19.143Z,138624
2017-06-26T14:19:29.414Z,127040
2017-06-26T14:20:39.686Z,127008
2017-06-26T14:21:50.264Z,130912
2017-06-26T14:23:00.236Z,130304
2017-06-26T14:24:10.517Z,81984
2017-06-26T14:25:20.769Z,129184
2017-06-26T14:26:30.721Z,63872
2017-06-26T14:27:41.232Z,84992
2017-06-26T14:28:51.195Z,41184
2017-06-26T14:30:01.142Z,29056
2017-06-26T14:31:11.414Z,28480
2017-06-26T14:32:21.365Z,26304
2017-06-26T14:33:31.261Z,22656
2017-06-26T14:34:41.527Z,18432
2017-06-26T14:35:51.799Z,15724
2017-06-26T14:37:02.065Z,14416
2017-06-26T14:38:12.320Z,12964
2017-06-26T14:39:22.566Z,11856
2017-06-26T14:40:32.843Z,11556
2017-06-26T14:41:43.104Z,12356
2017-06-26T14:42:53.368Z,13844
2017-06-26T14:44:03.321Z,17312
2017-06-26T14:45:13.852Z,21280
2017-06-26T14:46:23.809Z,25728
2017-06-26T14:47:33.762Z,29248
2017-06-26T14:48:44.047Z,31424
2017-06-26T14:49:54.325Z,33888
2017-06-26T14:51:04.530Z,35712
2017-06-26T14:52:14.169Z,38752
2017-06-26T14:53:24.416Z,46848
2017-06-26T14:54:34.055Z,74560
2017-06-26T14:55:44.333Z,47136
2017-06-26T14:56:54.844Z,38816
2017-06-26T14:58:05.101Z,36224
2017-06-26T14:59:15.049Z,41280
2017-06-26T15:00:25.002Z,36256
2017-06-26T15:01:35.289Z,35360
2017-06-26T15:02:45.495Z,110336
2017-06-26T15:03:55.780Z,41152
2017-06-26T15:05:05.768Z,105344
2017-06-26T15:06:15.736Z,37216
2017-06-26T15:07:26.015Z,26848
2017-06-26T15:08:36.221Z,23008
2017-06-26T15:09:46.522Z,21280
2017-06-26T15:10:56.804Z,21952
2017-06-26T15:12:07.092Z,21632
2017-06-26T15:13:17.051Z,21344
2017-06-26T15:14:27.258Z,20192
2017-06-26T15:15:37.515Z,20160
2017-06-26T15:16:47.793Z,19520
2017-06-26T15:17:57.749Z,18912
2017-06-26T15:19:08.048Z,18720
2017-06-26T15:20:17.936Z,20224
2017-06-26T15:21:27.276Z,21344
2017-06-26T15:22:37.550Z,21952
2017-06-26T15:23:47.494Z,21696
2017-06-26T15:24:57.449Z,21856
2017-06-26T15:26:07.965Z,20864
2017-06-26T15:27:18.213Z,22656
2017-06-26T15:28:28.169Z,64512
2017-06-26T15:29:38.433Z,32544
2017-06-26T15:30:48.375Z,25824
2017-06-26T15:31:58.895Z,24768